sensor_id;sensor_type;location;lat;lon;timestamp;P1;durP1;ratioP1;P2;durP2;ratioP2
69026;SDS011;56080;47.594;19.116;2023-03-23T00:04:59;20.90;;;12.00;;
69026;SDS011;56080;47.594;19.116;2023-03-23T00:15:05;22.80;;;13.10;;
69026;SDS011;56080;47.594;19.116;2023-03-23T00:24:58;19.60;;;12.50;;
69026;SDS011;56080;47.594;19.116;2023-03-23T00:34:59;23.70;;;13.20;;
69026;SDS011;56080;47.594;19.116;2023-03-23T00:44:58;24.40;;;14.00;;
69026;SDS011;56080;47.594;19.116;2023-03-23T00:54:58;25.00;;;14.70;;
69026;SDS011;56080;47.594;19.116;2023-03-23T01:05:02;25.20;;;13.80;;
69026;SDS011;56080;47.594;19.116;2023-03-23T01:15:00;27.40;;;15.40;;
69026;SDS011;56080;47.594;19.116;2023-03-23T01:25:00;30.00;;;17.60;;
69026;SDS011;56080;47.594;19.116;2023-03-23T01:35:01;24.60;;;14.30;;
69026;SDS011;56080;47.594;19.116;2023-03-23T01:55:04;34.20;;;18.90;;
69026;SDS011;56080;47.594;19.116;2023-03-23T02:05:08;25.30;;;14.80;;
69026;SDS011;56080;47.594;19.116;2023-03-23T02:15:03;29.70;;;17.50;;
69026;SDS011;56080;47.594;19.116;2023-03-23T02:35:11;27.40;;;15.60;;
69026;SDS011;56080;47.594;19.116;2023-03-23T02:45:08;25.40;;;14.80;;
69026;SDS011;56080;47.594;19.116;2023-03-23T02:55:05;25.90;;;14.00;;
69026;SDS011;56080;47.594;19.116;2023-03-23T03:05:10;25.60;;;15.10;;
69026;SDS011;56080;47.594;19.116;2023-03-23T03:15:16;23.50;;;13.70;;
69026;SDS011;56080;47.594;19.116;2023-03-23T03:25:07;22.30;;;12.80;;
69026;SDS011;56080;47.594;19.116;2023-03-23T03:35:06;19.50;;;11.40;;
69026;SDS011;56080;47.594;19.116;2023-03-23T03:45:08;23.80;;;13.00;;
69026;SDS011;56080;47.594;19.116;2023-03-23T03:55:08;21.40;;;12.80;;
69026;SDS011;56080;47.594;19.116;2023-03-23T04:05:07;20.60;;;11.70;;
69026;SDS011;56080;47.594;19.116;2023-03-23T04:15:18;23.10;;;12.70;;
69026;SDS011;56080;47.594;19.116;2023-03-23T04:25:10;23.90;;;13.80;;
69026;SDS011;56080;47.594;19.116;2023-03-23T04:35:21;22.40;;;13.50;;
69026;SDS011;56080;47.594;19.116;2023-03-23T04:45:09;23.40;;;13.40;;
69026;SDS011;56080;47.594;19.116;2023-03-23T04:55:09;18.80;;;11.30;;
69026;SDS011;56080;47.594;19.116;2023-03-23T05:05:11;23.40;;;13.40;;
69026;SDS011;56080;47.594;19.116;2023-03-23T05:15:12;21.10;;;11.60;;
69026;SDS011;56080;47.594;19.116;2023-03-23T05:25:13;18.80;;;11.10;;
69026;SDS011;56080;47.594;19.116;2023-03-23T05:35:12;18.20;;;11.30;;
69026;SDS011;56080;47.594;19.116;2023-03-23T05:45:12;21.20;;;12.30;;
69026;SDS011;56080;47.594;19.116;2023-03-23T05:55:13;20.60;;;12.10;;
69026;SDS011;56080;47.594;19.116;2023-03-23T06:05:13;19.70;;;11.50;;
69026;SDS011;56080;47.594;19.116;2023-03-23T06:15:15;15.00;;;8.90;;
69026;SDS011;56080;47.594;19.116;2023-03-23T06:25:16;16.90;;;9.60;;
69026;SDS011;56080;47.594;19.116;2023-03-23T06:35:14;15.60;;;9.60;;
69026;SDS011;56080;47.594;19.116;2023-03-23T06:45:15;18.30;;;11.60;;
69026;SDS011;56080;47.594;19.116;2023-03-23T06:55:16;19.20;;;12.50;;
69026;SDS011;56080;47.594;19.116;2023-03-23T07:05:16;19.10;;;11.70;;
69026;SDS011;56080;47.594;19.116;2023-03-23T07:15:19;18.20;;;11.10;;
69026;SDS011;56080;47.594;19.116;2023-03-23T07:25:18;17.40;;;11.00;;
69026;SDS011;56080;47.594;19.116;2023-03-23T07:35:19;17.70;;;11.10;;
69026;SDS011;56080;47.594;19.116;2023-03-23T07:45:20;21.10;;;12.60;;
69026;SDS011;56080;47.594;19.116;2023-03-23T07:55:22;17.90;;;12.00;;
69026;SDS011;56080;47.594;19.116;2023-03-23T08:05:20;17.70;;;11.40;;
69026;SDS011;56080;47.594;19.116;2023-03-23T08:15:29;15.80;;;10.90;;
69026;SDS011;56080;47.594;19.116;2023-03-23T08:25:23;16.00;;;10.40;;
69026;SDS011;56080;47.594;19.116;2023-03-23T08:35:24;18.30;;;10.60;;
69026;SDS011;56080;47.594;19.116;2023-03-23T08:45:27;14.80;;;9.70;;
69026;SDS011;56080;47.594;19.116;2023-03-23T08:55:28;14.10;;;9.50;;
69026;SDS011;56080;47.594;19.116;2023-03-23T09:05:28;15.30;;;10.10;;
69026;SDS011;56080;47.594;19.116;2023-03-23T09:15:34;15.20;;;9.00;;
69026;SDS011;56080;47.594;19.116;2023-03-23T09:25:32;13.70;;;8.70;;
69026;SDS011;56080;47.594;19.116;2023-03-23T09:35:32;12.60;;;8.50;;
69026;SDS011;56080;47.594;19.116;2023-03-23T09:55:34;14.10;;;8.10;;
69026;SDS011;56080;47.594;19.116;2023-03-23T10:05:36;12.60;;;8.20;;
69026;SDS011;56080;47.594;19.116;2023-03-23T10:15:41;11.90;;;6.90;;
69026;SDS011;56080;47.594;19.116;2023-03-23T10:25:42;14.30;;;8.10;;
69026;SDS011;56080;47.594;19.116;2023-03-23T10:35:47;10.00;;;6.60;;
69026;SDS011;56080;47.594;19.116;2023-03-23T10:45:44;13.90;;;8.40;;
69026;SDS011;56080;47.594;19.116;2023-03-23T10:55:46;10.60;;;6.50;;
69026;SDS011;56080;47.594;19.116;2023-03-23T11:05:56;9.30;;;6.40;;
69026;SDS011;56080;47.594;19.116;2023-03-23T11:15:48;10.00;;;6.50;;
69026;SDS011;56080;47.594;19.116;2023-03-23T11:26:03;11.80;;;7.70;;
69026;SDS011;56080;47.594;19.116;2023-03-23T11:35:47;13.70;;;7.80;;
69026;SDS011;56080;47.594;19.116;2023-03-23T11:56:01;7.90;;;4.60;;
69026;SDS011;56080;47.594;19.116;2023-03-23T12:06:05;10.50;;;5.20;;
69026;SDS011;56080;47.594;19.116;2023-03-23T12:26:07;7.40;;;4.00;;
69026;SDS011;56080;47.594;19.116;2023-03-23T12:36:07;8.20;;;4.30;;
69026;SDS011;56080;47.594;19.116;2023-03-23T13:06:20;7.80;;;3.60;;
69026;SDS011;56080;47.594;19.116;2023-03-23T13:26:13;6.00;;;3.60;;
69026;SDS011;56080;47.594;19.116;2023-03-23T13:36:10;6.50;;;3.30;;
69026;SDS011;56080;47.594;19.116;2023-03-23T13:56:25;6.80;;;3.30;;
69026;SDS011;56080;47.594;19.116;2023-03-23T14:06:13;6.00;;;3.20;;
69026;SDS011;56080;47.594;19.116;2023-03-23T14:16:15;5.80;;;3.40;;
69026;SDS011;56080;47.594;19.116;2023-03-23T14:26:25;8.00;;;3.70;;
69026;SDS011;56080;47.594;19.116;2023-03-23T14:36:14;7.20;;;3.30;;
69026;SDS011;56080;47.594;19.116;2023-03-23T14:46:16;7.00;;;3.70;;
69026;SDS011;56080;47.594;19.116;2023-03-23T14:56:22;8.30;;;3.70;;
69026;SDS011;56080;47.594;19.116;2023-03-23T15:06:25;7.30;;;3.60;;
69026;SDS011;56080;47.594;19.116;2023-03-23T15:16:30;6.60;;;3.60;;
69026;SDS011;56080;47.594;19.116;2023-03-23T15:26:30;7.20;;;3.30;;
69026;SDS011;56080;47.594;19.116;2023-03-23T15:36:26;6.60;;;3.30;;
69026;SDS011;56080;47.594;19.116;2023-03-23T15:46:23;7.00;;;3.30;;
69026;SDS011;56080;47.594;19.116;2023-03-23T15:56:25;8.30;;;3.70;;
69026;SDS011;56080;47.594;19.116;2023-03-23T16:06:36;7.30;;;3.60;;
69026;SDS011;56080;47.594;19.116;2023-03-23T16:26:29;7.00;;;3.50;;
69026;SDS011;56080;47.594;19.116;2023-03-23T16:36:30;6.80;;;3.70;;
69026;SDS011;56080;47.594;19.116;2023-03-23T16:46:31;7.20;;;3.50;;
69026;SDS011;56080;47.594;19.116;2023-03-23T16:56:33;6.20;;;3.20;;
69026;SDS011;56080;47.594;19.116;2023-03-23T17:06:34;6.80;;;3.80;;
69026;SDS011;56080;47.594;19.116;2023-03-23T17:16:35;7.00;;;3.90;;
69026;SDS011;56080;47.594;19.116;2023-03-23T17:26:37;7.30;;;4.20;;
69026;SDS011;56080;47.594;19.116;2023-03-23T17:56:43;6.30;;;3.60;;
69026;SDS011;56080;47.594;19.116;2023-03-23T18:06:44;8.30;;;4.90;;
69026;SDS011;56080;47.594;19.116;2023-03-23T18:16:44;10.60;;;6.30;;
69026;SDS011;56080;47.594;19.116;2023-03-23T18:26:46;9.40;;;5.60;;
69026;SDS011;56080;47.594;19.116;2023-03-23T18:36:47;8.40;;;4.90;;
69026;SDS011;56080;47.594;19.116;2023-03-23T18:46:48;8.80;;;5.00;;
69026;SDS011;56080;47.594;19.116;2023-03-23T18:56:51;8.70;;;5.10;;
69026;SDS011;56080;47.594;19.116;2023-03-23T19:06:50;9.60;;;5.70;;
69026;SDS011;56080;47.594;19.116;2023-03-23T19:16:52;12.50;;;7.30;;
69026;SDS011;56080;47.594;19.116;2023-03-23T19:26:54;11.70;;;7.40;;
69026;SDS011;56080;47.594;19.116;2023-03-23T19:37:04;12.70;;;7.00;;
69026;SDS011;56080;47.594;19.116;2023-03-23T19:46:57;14.10;;;8.50;;
69026;SDS011;56080;47.594;19.116;2023-03-23T19:56:57;15.30;;;8.90;;
69026;SDS011;56080;47.594;19.116;2023-03-23T20:06:58;14.00;;;9.40;;
69026;SDS011;56080;47.594;19.116;2023-03-23T20:17:00;12.90;;;9.30;;
69026;SDS011;56080;47.594;19.116;2023-03-23T20:27:01;16.40;;;11.70;;
69026;SDS011;56080;47.594;19.116;2023-03-23T20:37:01;16.00;;;10.20;;
69026;SDS011;56080;47.594;19.116;2023-03-23T20:47:02;16.30;;;10.90;;
69026;SDS011;56080;47.594;19.116;2023-03-23T20:57:08;16.50;;;10.70;;
69026;SDS011;56080;47.594;19.116;2023-03-23T21:07:05;18.00;;;11.10;;
69026;SDS011;56080;47.594;19.116;2023-03-23T21:17:07;17.20;;;10.90;;
69026;SDS011;56080;47.594;19.116;2023-03-23T21:27:07;14.70;;;10.70;;
69026;SDS011;56080;47.594;19.116;2023-03-23T21:37:07;15.50;;;10.20;;
69026;SDS011;56080;47.594;19.116;2023-03-23T21:47:11;12.70;;;8.20;;
69026;SDS011;56080;47.594;19.116;2023-03-23T21:57:09;15.60;;;9.80;;
69026;SDS011;56080;47.594;19.116;2023-03-23T22:07:10;13.50;;;8.40;;
69026;SDS011;56080;47.594;19.116;2023-03-23T22:17:11;13.60;;;8.60;;
69026;SDS011;56080;47.594;19.116;2023-03-23T22:27:12;12.90;;;8.40;;
69026;SDS011;56080;47.594;19.116;2023-03-23T22:37:15;12.00;;;7.40;;
69026;SDS011;56080;47.594;19.116;2023-03-23T22:47:15;11.20;;;7.70;;
69026;SDS011;56080;47.594;19.116;2023-03-23T22:57:15;14.00;;;8.80;;
69026;SDS011;56080;47.594;19.116;2023-03-23T23:07:24;13.30;;;8.60;;
69026;SDS011;56080;47.594;19.116;2023-03-23T23:17:17;10.10;;;6.80;;
69026;SDS011;56080;47.594;19.116;2023-03-23T23:27:18;12.60;;;7.80;;
69026;SDS011;56080;47.594;19.116;2023-03-23T23:37:19;13.70;;;8.00;;
69026;SDS011;56080;47.594;19.116;2023-03-23T23:47:20;13.00;;;7.90;;
69026;SDS011;56080;47.594;19.116;2023-03-23T23:57:21;15.20;;;9.90;;
